createdAt,value
2024-04-05T00:02:11.836Z,100947.81
2024-04-05T00:04:38.977Z,100945.34
2024-04-05T00:07:13.679Z,100936.22
2024-04-05T00:09:41.556Z,100944.88
2024-04-05T00:12:15.167Z,100947.50
2024-04-05T00:14:42.044Z,100930.47
2024-04-05T00:17:12.359Z,100933.31
2024-04-05T00:19:41.790Z,100922.53
2024-04-05T00:22:09.193Z,100925.63
2024-04-05T00:24:39.247Z,100933.41
2024-04-05T00:27:07.021Z,100919.94
2024-04-05T00:29:36.927Z,100926.63
2024-04-05T00:32:04.925Z,100925.22
2024-04-05T00:34:31.924Z,100921.19
2024-04-05T00:36:59.295Z,100919.50
2024-04-05T00:39:26.224Z,100922.25
2024-04-05T00:41:56.252Z,100915.28
2024-04-05T00:44:28.973Z,100916.09
2024-04-05T00:46:56.789Z,100914.34
2024-04-05T00:49:24.321Z,100911.28
2024-04-05T00:51:52.320Z,100912.34
2024-04-05T00:54:20.786Z,100907.13
2024-04-05T00:56:48.923Z,100905.53
2024-04-05T00:59:15.929Z,100908.31
2024-04-05T01:01:43.804Z,100908.44
2024-04-05T01:04:11.906Z,100903.84
2024-04-05T01:06:45.532Z,100903.25
2024-04-05T01:09:13.147Z,100906.03
2024-04-05T01:11:40.365Z,100895.19
2024-04-05T01:14:07.558Z,100886.75
2024-04-05T01:16:34.529Z,100886.13
2024-04-05T01:19:03.418Z,100877.47
2024-04-05T01:21:31.310Z,100878.47
2024-04-05T01:24:01.655Z,100875.88
2024-04-05T01:26:29.628Z,100880.50
2024-04-05T01:28:57.029Z,100883.72
2024-04-05T01:31:23.939Z,100879.41
2024-04-05T01:33:51.107Z,100895.97
2024-04-05T01:36:18.279Z,100887.44
2024-04-05T01:38:51.587Z,100889.47
2024-04-05T01:41:21.887Z,100893.81
2024-04-05T01:43:49.067Z,100886.25
2024-04-05T01:46:16.091Z,100894.41
2024-04-05T01:48:43.248Z,100896.13
2024-04-05T01:51:10.206Z,100896.25
2024-04-05T01:53:37.433Z,100901.81
2024-04-05T01:56:04.917Z,100900.91
2024-04-05T01:58:35.627Z,100903.13
2024-04-05T02:01:02.859Z,100897.81
2024-04-05T02:03:36.052Z,100880.06
2024-04-05T02:06:12.643Z,100861.47
2024-04-05T02:08:40.127Z,100869.19
2024-04-05T02:11:07.181Z,100874.31
2024-04-05T02:13:35.044Z,100857.56
2024-04-05T02:16:01.955Z,100877.19
2024-04-05T02:18:35.301Z,100870.47
2024-04-05T02:21:02.281Z,100859.25
2024-04-05T02:23:29.537Z,100862.88
2024-04-05T02:25:56.523Z,100873.53
2024-04-05T02:28:23.717Z,100872.00
2024-04-05T02:30:51.020Z,100878.88
2024-04-05T02:33:17.975Z,100877.88
2024-04-05T02:35:44.620Z,100879.53
2024-04-05T02:38:11.644Z,100885.84
2024-04-05T02:40:38.338Z,100882.34
2024-04-05T02:43:05.522Z,100889.19
2024-04-05T02:45:32.170Z,100891.91
2024-04-05T02:47:59.754Z,100893.56
2024-04-05T02:50:26.422Z,100905.63
2024-04-05T02:52:53.349Z,100905.31
2024-04-05T02:55:22.911Z,100901.50
2024-04-05T02:57:49.781Z,100904.03
2024-04-05T03:00:16.682Z,100904.59
2024-04-05T03:02:43.641Z,100902.28
2024-04-05T03:05:12.926Z,100905.63
2024-04-05T03:07:39.864Z,100902.13
2024-04-05T03:10:07.389Z,100917.91
2024-04-05T03:12:34.621Z,100913.84
2024-04-05T03:15:01.939Z,100909.06
2024-04-05T03:17:35.010Z,100899.38
2024-04-05T03:20:01.704Z,100892.38
2024-04-05T03:22:29.340Z,100899.75
2024-04-05T03:24:56.358Z,100894.22
2024-04-05T03:27:23.239Z,100901.19
2024-04-05T03:29:51.718Z,100905.59
2024-04-05T03:32:18.632Z,100906.13
2024-04-05T03:34:47.309Z,100905.09
2024-04-05T03:37:17.030Z,100904.31
2024-04-05T03:39:44.672Z,100896.78
2024-04-05T03:42:11.641Z,100897.53
2024-04-05T03:44:38.307Z,100895.88
2024-04-05T03:47:05.388Z,100890.69
2024-04-05T03:49:32.039Z,100902.97
2024-04-05T03:51:58.923Z,100915.81
2024-04-05T03:54:25.865Z,100915.56
2024-04-05T03:56:54.573Z,100921.88
2024-04-05T03:59:21.693Z,100918.00
2024-04-05T04:01:51.457Z,100918.00
2024-04-05T04:04:18.463Z,100910.13
2024-04-05T04:06:45.165Z,100904.47
2024-04-05T04:09:12.278Z,100914.19
2024-04-05T04:11:39.332Z,100905.31
2024-04-05T04:14:06.927Z,100910.09
2024-04-05T04:16:33.580Z,100901.63
2024-04-05T04:19:00.514Z,100897.81
2024-04-05T04:21:27.150Z,100902.56
2024-04-05T04:23:54.638Z,100893.69
2024-04-05T04:26:21.333Z,100895.41
2024-04-05T04:28:49.699Z,100892.84
2024-04-05T04:31:20.837Z,100892.50
2024-04-05T04:33:47.894Z,100894.09
2024-04-05T04:36:15.009Z,100900.31
2024-04-05T04:38:42.416Z,100892.25
2024-04-05T04:41:09.116Z,100893.13
2024-04-05T04:43:36.659Z,100899.50
2024-04-05T04:46:03.656Z,100885.91
2024-04-05T04:48:31.465Z,100887.38
2024-04-05T04:50:58.177Z,100863.72
2024-04-05T04:53:27.860Z,100856.34
2024-04-05T04:55:54.526Z,100859.28
2024-04-05T04:58:23.568Z,100859.31
2024-04-05T05:00:50.460Z,100855.91
2024-04-05T05:03:17.444Z,100848.50
2024-04-05T05:05:44.779Z,100864.03
2024-04-05T05:08:11.856Z,100858.78
2024-04-05T05:10:39.412Z,100854.84
2024-04-05T05:13:09.527Z,100849.66
2024-04-05T05:15:36.854Z,100842.53
2024-04-05T05:18:04.881Z,100816.63
2024-04-05T05:20:34.632Z,100787.09
2024-04-05T05:23:02.430Z,100768.22
2024-04-05T05:25:29.150Z,100790.88
2024-04-05T05:27:56.145Z,100807.13
2024-04-05T05:30:22.813Z,100814.47
2024-04-05T05:32:57.148Z,100842.22
2024-04-05T05:35:24.020Z,100853.56
2024-04-05T05:37:51.032Z,100867.66
2024-04-05T05:40:18.342Z,100863.94
2024-04-05T05:42:45.253Z,100887.50
2024-04-05T05:45:11.927Z,100875.81
2024-04-05T05:47:44.790Z,100894.94
2024-04-05T05:50:11.980Z,100886.56
2024-04-05T05:52:38.934Z,100882.75
2024-04-05T05:55:06.792Z,100890.97
2024-04-05T05:57:34.328Z,100883.47
2024-04-05T06:00:01.464Z,100867.19
2024-04-05T06:02:28.401Z,100849.16
2024-04-05T06:04:55.061Z,100827.75
2024-04-05T06:07:22.981Z,100822.81
2024-04-05T06:09:52.410Z,100815.88
2024-04-05T06:12:19.324Z,100835.31
2024-04-05T06:14:54.625Z,100832.84
2024-04-05T06:17:22.059Z,100828.41
2024-04-05T06:19:53.964Z,100829.19
2024-04-05T06:22:21.557Z,100825.25
2024-04-05T06:24:51.747Z,100824.97
2024-04-05T06:27:19.525Z,100822.09
2024-04-05T06:29:49.420Z,100812.16
2024-04-05T06:32:16.465Z,100801.69
2024-04-05T06:34:43.968Z,100795.28
2024-04-05T06:37:13.974Z,100798.47
2024-04-05T06:39:43.255Z,100789.38
2024-04-05T06:42:11.311Z,100776.84
2024-04-05T06:44:39.732Z,100767.13
2024-04-05T06:47:08.507Z,100768.22
2024-04-05T06:49:37.642Z,100759.59
2024-04-05T06:52:08.809Z,100753.72
2024-04-05T06:54:40.136Z,100749.31
2024-04-05T06:57:07.072Z,100741.75
2024-04-05T06:59:36.145Z,100743.28
2024-04-05T07:02:03.940Z,100737.75
2024-04-05T07:04:31.700Z,100724.75
2024-04-05T07:07:01.434Z,100728.50
2024-04-05T07:09:30.039Z,100722.59
2024-04-05T07:12:05.009Z,100730.28
2024-04-05T07:14:32.205Z,100725.25
2024-04-05T07:16:58.922Z,100721.50
2024-04-05T07:19:25.972Z,100721.34
2024-04-05T07:21:59.389Z,100721.34
2024-04-05T07:24:26.351Z,100725.25
2024-04-05T07:26:53.047Z,100724.91
2024-04-05T07:29:20.033Z,100731.13
2024-04-05T07:31:48.840Z,100724.59
2024-04-05T07:34:16.437Z,100726.00
2024-04-05T07:36:44.459Z,100715.81
2024-04-05T07:39:12.818Z,100700.34
2024-04-05T07:41:39.542Z,100719.41
2024-04-05T07:44:07.250Z,100708.28
2024-04-05T07:46:35.732Z,100728.97
2024-04-05T07:49:02.670Z,100720.63
2024-04-05T07:51:29.356Z,100714.91
2024-04-05T07:53:56.264Z,100719.97
2024-04-05T07:56:27.670Z,100714.91
2024-04-05T07:58:54.672Z,100706.50
2024-04-05T08:01:22.341Z,100701.31
2024-04-05T08:03:49.262Z,100708.72
2024-04-05T08:06:16.008Z,100721.53
2024-04-05T08:08:45.245Z,100729.09
2024-04-05T08:11:11.883Z,100725.88
2024-04-05T08:13:39.436Z,100720.72
2024-04-05T08:16:07.034Z,100721.22
2024-04-05T08:18:34.408Z,100717.81
2024-04-05T08:21:05.648Z,100710.88
2024-04-05T08:23:32.624Z,100710.72
2024-04-05T08:26:02.204Z,100703.91
2024-04-05T08:28:29.226Z,100702.06
2024-04-05T08:30:56.658Z,100691.69
2024-04-05T08:33:23.705Z,100697.13
2024-04-05T08:35:53.721Z,100687.53
2024-04-05T08:38:20.717Z,100685.66
2024-04-05T08:40:48.254Z,100683.97
2024-04-05T08:43:17.240Z,100680.13
2024-04-05T08:45:52.010Z,100667.13
2024-04-05T08:48:21.764Z,100666.97
2024-04-05T08:50:48.709Z,100666.34
2024-04-05T08:53:17.830Z,100657.56
2024-04-05T08:55:45.807Z,100654.16
2024-04-05T08:58:13.904Z,100650.75
2024-04-05T09:00:40.886Z,100642.56
2024-04-05T09:03:12.060Z,100640.88
2024-04-05T09:05:39.459Z,100635.53
2024-04-05T09:08:08.966Z,100631.66
2024-04-05T09:10:36.186Z,100622.44
2024-04-05T09:13:05.074Z,100619.34
2024-04-05T09:15:32.920Z,100620.28
2024-04-05T09:17:59.924Z,100622.69
2024-04-05T09:20:30.396Z,100599.44
2024-04-05T09:23:02.559Z,100591.41
2024-04-05T09:25:32.936Z,100582.16
2024-04-05T09:28:07.886Z,100570.28
2024-04-05T09:30:35.808Z,100569.56
2024-04-05T09:33:02.923Z,100546.94
2024-04-05T09:35:30.932Z,100565.56
2024-04-05T09:37:58.647Z,100559.41
2024-04-05T09:40:26.153Z,100570.72
2024-04-05T09:42:54.479Z,100591.47
2024-04-05T09:45:22.439Z,100586.97
2024-04-05T09:47:50.572Z,100572.09
2024-04-05T09:50:17.772Z,100565.91
2024-04-05T09:52:50.983Z,100547.53
2024-04-05T09:55:19.599Z,100569.09
2024-04-05T09:57:49.684Z,100571.88
2024-04-05T10:00:21.588Z,100569.75
2024-04-05T10:02:52.305Z,100579.06
2024-04-05T10:05:26.240Z,100587.16
2024-04-05T10:07:54.362Z,100596.88
2024-04-05T10:10:33.092Z,100608.50
2024-04-05T10:13:12.602Z,100617.34
2024-04-05T10:15:40.067Z,100617.06
2024-04-05T10:18:07.221Z,100643.59
2024-04-05T10:20:35.014Z,100644.28
2024-04-05T10:23:04.126Z,100636.66
2024-04-05T10:25:30.933Z,100624.56
2024-04-05T10:27:57.908Z,100613.25
2024-04-05T10:30:25.213Z,100619.88
2024-04-05T10:33:01.273Z,100635.50
2024-04-05T10:35:33.293Z,100610.31
2024-04-05T10:38:14.105Z,100621.44
2024-04-05T10:40:56.143Z,100625.78
2024-04-05T10:43:23.089Z,100626.94
2024-04-05T10:45:54.185Z,100627.69
2024-04-05T10:48:22.320Z,100591.97
2024-04-05T10:50:49.547Z,100606.09
2024-04-05T10:53:17.241Z,100611.81
2024-04-05T10:55:45.127Z,100613.88
2024-04-05T10:58:13.322Z,100607.66
2024-04-05T11:00:40.841Z,100607.34
2024-04-05T11:03:11.259Z,100600.69
2024-04-05T11:05:38.250Z,100609.91
2024-04-05T11:08:06.638Z,100608.81
2024-04-05T11:10:38.295Z,100599.63
2024-04-05T11:13:17.350Z,100593.91
2024-04-05T11:15:47.934Z,100597.13
2024-04-05T11:18:16.614Z,100583.06
2024-04-05T11:20:48.448Z,100567.25
2024-04-05T11:23:16.960Z,100578.09
2024-04-05T11:25:52.397Z,100598.59
2024-04-05T11:28:26.971Z,100607.09
2024-04-05T11:30:54.629Z,100630.16
2024-04-05T11:33:22.217Z,100646.31
2024-04-05T11:35:49.186Z,100640.47
2024-04-05T11:38:16.371Z,100655.28
2024-04-05T11:40:43.044Z,100669.47
2024-04-05T11:43:10.011Z,100668.00
2024-04-05T11:45:36.731Z,100651.28
2024-04-05T11:48:08.017Z,100652.19
2024-04-05T11:50:43.058Z,100648.44
2024-04-05T11:53:09.971Z,100649.59
2024-04-05T11:55:36.662Z,100646.84
2024-04-05T11:58:04.986Z,100637.03
2024-04-05T12:00:31.687Z,100632.88
2024-04-05T12:02:58.760Z,100640.50
2024-04-05T12:05:25.434Z,100624.06
2024-04-05T12:07:53.056Z,100637.09
2024-04-05T12:10:19.937Z,100628.13
2024-04-05T12:12:46.876Z,100631.34
2024-04-05T12:15:15.962Z,100620.75
2024-04-05T12:17:42.938Z,100621.81
2024-04-05T12:20:12.545Z,100617.78
2024-04-05T12:22:39.719Z,100611.91
2024-04-05T12:25:08.118Z,100625.00
2024-04-05T12:27:35.142Z,100623.38
2024-04-05T12:30:01.763Z,100636.75
2024-04-05T12:32:31.708Z,100631.13
2024-04-05T12:35:00.003Z,100636.00
2024-04-05T12:37:28.091Z,100616.59
2024-04-05T12:39:55.465Z,100613.75
2024-04-05T12:42:23.440Z,100620.59
2024-04-05T12:44:50.745Z,100600.00
2024-04-05T12:47:17.676Z,100594.31
2024-04-05T12:49:44.348Z,100600.63
2024-04-05T12:52:11.348Z,100594.31
2024-04-05T12:54:38.022Z,100586.13
2024-04-05T12:57:05.770Z,100590.56
2024-04-05T12:59:33.239Z,100609.16
2024-04-05T13:02:00.598Z,100606.06
2024-04-05T13:04:30.059Z,100614.13
2024-04-05T13:07:00.806Z,100599.06
2024-04-05T13:09:27.471Z,100608.97
2024-04-05T13:11:54.396Z,100611.34
2024-04-05T13:14:24.944Z,100617.66
2024-04-05T13:16:55.540Z,100615.72
2024-04-05T13:19:22.334Z,100630.66
2024-04-05T13:21:49.390Z,100632.91
2024-04-05T13:24:16.069Z,100649.34
2024-04-05T13:26:43.021Z,100680.84
2024-04-05T13:29:09.720Z,100673.03
2024-04-05T13:31:37.353Z,100660.22
2024-04-05T13:34:07.060Z,100669.78
2024-04-05T13:36:34.432Z,100653.97
2024-04-05T13:39:01.159Z,100692.06
2024-04-05T13:41:31.183Z,100701.72
2024-04-05T13:44:04.020Z,100702.13
2024-04-05T13:46:31.222Z,100718.69
2024-04-05T13:49:06.946Z,100723.06
2024-04-05T13:51:35.464Z,100729.25
2024-04-05T13:54:03.893Z,100727.25
2024-04-05T13:56:33.815Z,100726.94
2024-04-05T13:59:00.501Z,100736.97
2024-04-05T14:01:27.479Z,100731.09
2024-04-05T14:03:54.148Z,100734.19
2024-04-05T14:06:21.101Z,100728.88
2024-04-05T14:08:49.890Z,100725.31
2024-04-05T14:11:17.264Z,100724.66
2024-04-05T14:13:46.816Z,100713.91
2024-04-05T14:16:15.050Z,100709.91
2024-04-05T14:18:48.144Z,100713.06
2024-04-05T14:21:14.743Z,100723.53
2024-04-05T14:23:41.671Z,100726.97
2024-04-05T14:26:09.013Z,100733.50
2024-04-05T14:28:35.973Z,100718.28
2024-04-05T14:31:14.717Z,100702.44
2024-04-05T14:33:58.281Z,100697.94
2024-04-05T14:36:26.470Z,100709.34
2024-04-05T14:38:54.412Z,100709.59
2024-04-05T14:41:21.768Z,100710.47
2024-04-05T14:43:49.247Z,100709.66
2024-04-05T14:46:15.953Z,100713.88
2024-04-05T14:48:43.339Z,100734.75
2024-04-05T14:51:10.095Z,100735.72
2024-04-05T14:53:38.095Z,100738.81
2024-04-05T14:56:06.906Z,100738.16
2024-04-05T14:58:34.851Z,100733.53
2024-04-05T15:03:31.272Z,100741.03
2024-04-05T15:06:03.550Z,100738.03
2024-04-05T15:08:31.801Z,100746.34
2024-04-05T15:10:58.517Z,100742.69
2024-04-05T15:13:29.522Z,100746.91
2024-04-05T15:15:57.068Z,100755.41
2024-04-05T15:18:25.053Z,100756.94
2024-04-05T15:20:53.311Z,100757.41
2024-04-05T15:23:24.428Z,100751.81
2024-04-05T15:25:52.474Z,100748.28
2024-04-05T15:28:19.787Z,100750.38
2024-04-05T15:30:52.575Z,100754.81
2024-04-05T15:33:20.516Z,100757.88
2024-04-05T15:35:56.070Z,100761.56
2024-04-05T15:38:25.476Z,100761.28
2024-04-05T15:41:04.152Z,100760.97
2024-04-05T15:43:32.130Z,100760.41
2024-04-05T15:46:00.895Z,100777.38
2024-04-05T15:48:28.708Z,100775.81
2024-04-05T15:51:01.172Z,100766.47
2024-04-05T15:53:30.416Z,100761.47
2024-04-05T15:56:00.977Z,100773.03
2024-04-05T15:58:29.372Z,100773.72
2024-04-05T16:00:56.079Z,100777.56
2024-04-05T16:03:23.045Z,100774.94
2024-04-05T16:05:51.368Z,100771.31
2024-04-05T16:08:18.568Z,100763.94
2024-04-05T16:10:52.976Z,100766.13
2024-04-05T16:13:20.261Z,100766.66
2024-04-05T16:15:47.327Z,100770.16
2024-04-05T16:18:14.770Z,100774.84
2024-04-05T16:20:41.997Z,100766.69
2024-04-05T16:23:09.920Z,100758.09
2024-04-05T16:25:36.989Z,100769.03
2024-04-05T16:28:06.021Z,100766.28
2024-04-05T16:30:39.408Z,100774.28
2024-04-05T16:33:08.607Z,100776.09
2024-04-05T16:35:35.657Z,100772.75
2024-04-05T16:38:03.767Z,100784.03
2024-04-05T16:40:31.399Z,100785.34
2024-04-05T16:42:58.615Z,100789.28
2024-04-05T16:45:26.277Z,100798.00
2024-04-05T16:47:54.716Z,100811.56
2024-04-05T16:50:21.816Z,100803.38
2024-04-05T16:52:50.193Z,100813.09
2024-04-05T16:55:17.417Z,100807.66
2024-04-05T16:57:50.170Z,100812.03
2024-04-05T17:00:19.328Z,100811.63
2024-04-05T17:02:52.633Z,100815.78
2024-04-05T17:05:21.982Z,100812.94
2024-04-05T17:07:52.056Z,100816.53
2024-04-05T17:10:26.897Z,100820.06
2024-04-05T17:12:56.660Z,100816.09
2024-04-05T17:15:24.012Z,100818.69
2024-04-05T17:17:51.930Z,100822.22
2024-04-05T17:20:19.850Z,100820.00
2024-04-05T17:22:49.453Z,100826.16
2024-04-05T17:25:16.799Z,100830.44
2024-04-05T17:27:46.354Z,100840.88
2024-04-05T17:30:14.355Z,100841.72
2024-04-05T17:32:41.371Z,100836.44
2024-04-05T17:35:08.644Z,100847.63
2024-04-05T17:37:35.697Z,100849.06
2024-04-05T17:40:03.159Z,100850.75
2024-04-05T17:42:30.079Z,100857.84
2024-04-05T17:44:57.269Z,100863.97
2024-04-05T17:47:25.053Z,100863.91
2024-04-05T17:49:52.246Z,100865.69
2024-04-05T17:52:19.162Z,100862.56
2024-04-05T17:54:46.387Z,100871.06
2024-04-05T17:57:13.395Z,100872.81
2024-04-05T17:59:40.618Z,100874.09
2024-04-05T18:02:07.527Z,100874.28
2024-04-05T18:04:38.219Z,100882.66
2024-04-05T18:07:05.388Z,100884.50
2024-04-05T18:09:35.540Z,100885.91
2024-04-05T18:12:02.490Z,100894.50
2024-04-05T18:14:29.760Z,100900.28
2024-04-05T18:16:56.690Z,100887.47
2024-04-05T18:19:23.964Z,100891.59
2024-04-05T18:21:51.608Z,100901.09
2024-04-05T18:24:18.844Z,100901.25
2024-04-05T18:26:45.738Z,100907.13
2024-04-05T18:29:13.019Z,100905.84
2024-04-05T18:31:39.940Z,100915.00
2024-04-05T18:34:07.928Z,100910.13
2024-04-05T18:36:35.519Z,100912.38
2024-04-05T18:39:04.992Z,100911.00
2024-04-05T18:41:34.710Z,100917.00
2024-04-05T18:44:01.910Z,100922.59
2024-04-05T18:46:38.133Z,100924.59
2024-04-05T18:49:06.508Z,100922.94
2024-04-05T18:51:35.637Z,100928.44
2024-04-05T18:54:06.330Z,100931.25
2024-04-05T18:56:33.998Z,100928.44
2024-04-05T18:59:01.376Z,100940.84
2024-04-05T19:01:30.954Z,100938.69
2024-04-05T19:04:01.787Z,100946.84
2024-04-05T19:06:30.168Z,100947.88
2024-04-05T19:09:00.310Z,100951.19
2024-04-05T19:11:27.675Z,100946.78
2024-04-05T19:13:55.836Z,100949.19
2024-04-05T19:16:22.722Z,100953.63
2024-04-05T19:18:50.384Z,100951.63
2024-04-05T19:21:17.068Z,100954.22
2024-04-05T19:23:44.127Z,100967.44
2024-04-05T19:26:10.963Z,100971.00
2024-04-05T19:28:38.558Z,100967.53
2024-04-05T19:31:06.738Z,100979.00
2024-04-05T19:33:36.455Z,100985.00
2024-04-05T19:36:04.871Z,100986.06
2024-04-05T19:38:35.793Z,100996.28
2024-04-05T19:41:05.269Z,100998.22
2024-04-05T19:43:32.224Z,101000.44
2024-04-05T19:45:59.594Z,100995.41
2024-04-05T19:48:26.530Z,100997.16
2024-04-05T19:50:53.345Z,100999.38
2024-04-05T19:53:20.266Z,100997.88
2024-04-05T19:55:49.124Z,100998.84
2024-04-05T19:58:23.115Z,100997.06
2024-04-05T20:00:55.990Z,100998.97
2024-04-05T20:03:27.602Z,101000.44
2024-04-05T20:05:57.956Z,101010.91
2024-04-05T20:08:25.783Z,101004.28
2024-04-05T20:10:53.030Z,101005.44
2024-04-05T20:13:20.329Z,101009.94
2024-04-05T20:15:46.959Z,101011.22
2024-04-05T20:18:13.958Z,101011.91
2024-04-05T20:20:41.598Z,101018.97
2024-04-05T20:23:08.222Z,101016.25
2024-04-05T20:25:35.222Z,101015.28
2024-04-05T20:28:02.752Z,101021.25
2024-04-05T20:30:47.754Z,101020.19
2024-04-05T20:33:14.703Z,101015.75
2024-04-05T20:35:42.246Z,101023.50
2024-04-05T20:38:09.150Z,101015.38
2024-04-05T20:40:36.063Z,101017.50
2024-04-05T20:43:03.325Z,101020.31
2024-04-05T20:45:29.943Z,101015.81
2024-04-05T20:47:56.915Z,101019.91
2024-04-05T20:50:24.426Z,101015.97
2024-04-05T20:52:51.996Z,101010.28
2024-04-05T20:55:18.640Z,101011.25
2024-04-05T20:57:48.420Z,101009.38
2024-04-05T21:00:15.921Z,101010.16
2024-04-05T21:02:42.815Z,101010.44
2024-04-05T21:05:09.430Z,101013.25
2024-04-05T21:07:36.336Z,101017.31
2024-04-05T21:10:04.335Z,101019.03
2024-04-05T21:12:31.271Z,101025.59
2024-04-05T21:14:57.898Z,101031.72
2024-04-05T21:17:27.620Z,101027.44
2024-04-05T21:20:04.418Z,101036.03
2024-04-05T21:22:34.523Z,101027.31
2024-04-05T21:25:01.165Z,101029.34
2024-04-05T21:27:29.167Z,101024.63
2024-04-05T21:29:57.729Z,101015.91
2024-04-05T21:32:24.712Z,101018.41
2024-04-05T21:34:52.438Z,101015.81
2024-04-05T21:37:20.254Z,101004.50
2024-04-05T21:39:46.920Z,101011.38
2024-04-05T21:42:13.815Z,101016.47
2024-04-05T21:44:41.120Z,101017.59
2024-04-05T21:47:11.140Z,101022.56
2024-04-05T21:52:08.747Z,101025.97
2024-04-05T21:54:35.424Z,101025.94
2024-04-05T21:57:03.496Z,101026.78
2024-04-05T21:59:30.613Z,101029.28
2024-04-05T22:01:58.162Z,101020.59
2024-04-05T22:04:25.030Z,101018.44
2024-04-05T22:06:54.725Z,101019.94
2024-04-05T22:09:21.606Z,101020.91
2024-04-05T22:11:48.796Z,101020.47
2024-04-05T22:14:20.594Z,101024.69
2024-04-05T22:16:51.912Z,101031.81
2024-04-05T22:19:19.211Z,101033.56
2024-04-05T22:21:48.914Z,101036.25
2024-04-05T22:24:15.556Z,101033.94
2024-04-05T22:26:51.617Z,101032.41
2024-04-05T22:29:18.315Z,101032.56
2024-04-05T22:31:45.266Z,101035.13
2024-04-05T22:34:11.898Z,101037.44
2024-04-05T22:36:39.531Z,101049.16
2024-04-05T22:39:08.897Z,101059.75
2024-04-05T22:41:37.493Z,101064.72
2024-04-05T22:44:04.495Z,101063.34
2024-04-05T22:46:31.889Z,101066.91
2024-04-05T22:48:58.519Z,101057.03
2024-04-05T22:51:25.508Z,101062.63
2024-04-05T22:53:52.792Z,101078.31
2024-04-05T22:56:19.751Z,101086.03
2024-04-05T22:58:46.488Z,101086.03
2024-04-05T23:01:16.582Z,101079.81
2024-04-05T23:03:44.168Z,101086.13
2024-04-05T23:06:11.127Z,101086.88
2024-04-05T23:08:37.736Z,101072.97
2024-04-05T23:11:05.521Z,101078.44
2024-04-05T23:13:32.145Z,101086.94
2024-04-05T23:15:59.065Z,101071.91
2024-04-05T23:18:25.680Z,101076.56
2024-04-05T23:20:52.597Z,101076.13
2024-04-05T23:23:19.316Z,101089.00
2024-04-05T23:25:48.379Z,101085.47
2024-04-05T23:28:15.709Z,101088.00
2024-04-05T23:30:42.643Z,101089.19
2024-04-05T23:33:12.700Z,101094.28
2024-04-05T23:35:39.644Z,101096.00
2024-04-05T23:38:06.289Z,101094.19
2024-04-05T23:40:33.221Z,101091.44
2024-04-05T23:42:59.866Z,101087.59
2024-04-05T23:45:27.411Z,101075.56
2024-04-05T23:47:54.055Z,101077.91
2024-04-05T23:50:20.939Z,101078.28
2024-04-05T23:52:47.601Z,101081.16
2024-04-05T23:55:14.616Z,101087.38
2024-04-05T23:57:41.291Z,101086.59
